x

Buoy F01 - West Penobscot Bay (44033) Wave Buoy

6:04 - Sat 6th Feb 2016 All times are EST. -5 hours from GMT.

  • Sig Wave height 3.0ft
  • Peak Period 5s
  • Wind
    22mph, 27mph gusts
  • Sea Temp 39°f
  • Air Temp 38°f
  • Sea Pressure 1021.6mb
  • Buoy F01 - West Penobscot Bay
  • Buoy F01 - West Penobscot Bay

More Historic Weather Station data

Upgrade to MSW Pro to gain access to the past 30 days of data for over 8000 Wavebouys and Weather Stations around the globe.

Join Pro

Comparision Forecast

View Surf forecast
   
sam. 02/06 6:04 3ft 5s 22 27 mph 1021.6mb 39f 38f
5:04 2.5ft 3s 22 27 mph 1021.6mb 39f 37f
4:04 2.5ft 3s 22 27 mph 1021.7mb 39f 37f
3:04 2.5ft 5s 20 27 mph 1022.1mb 39f 34f
2:04 2.5ft 3s 20 27 mph 1022.4mb 38f 32f
1:04 2ft 4s 20 25 mph 1023mb 38f 31f
12:04 1.6ft 4s 18 25 mph 1023.5mb 38f 31f
11:04 1ft 5s 16 20 mph 1024.4mb 38f 30f
10:04 1ft 4s 11 13 mph 1024.9mb 38f 27f
9:04 1ft 4s 16 18 mph 1024.8mb 38f 25f
8:04 1.6ft 11s 16 20 mph 1024.6mb 38f 24f
7:04 1.3ft 4s 16 18 mph 1024.1mb 38f 23f
6:04 1.3ft 2s 20 29 mph 1023.5mb 38f 23f
5:04 1ft 3s 11 13 mph 1023.3mb 38f 22f
4:04 1ft 11s 9 11 mph 1022.8mb 38f 21f
3:04 1ft 11s 4 7 mph 1022.3mb 39f 21f
2:04 1ft 2s 7 9 mph 1021.7mb 39f 21f
1:04 1.3ft 3s 9 13 mph 1020.5mb 39f 22f
12:04 2ft 3s 13 18 mph 1019.5mb 39f 23f
ven. 02/05 11:04 2.5ft 3s 20 25 mph 1018.4mb 40f 24f
10:04 3ft 4s 22 27 mph 1016.8mb 40f 26f
9:04 3ft 3s 27 34 mph 1015.6mb 40f 27f
8:04 3ft 4s 22 29 mph 1014.3mb 40f 28f
7:04 3.5ft 4s 27 31 mph 1012.8mb 40f 28f
6:04 3.5ft 4s 27 36 mph 1011mb 40f 29f
5:04 3.5ft 4s 29 34 mph 1010.2mb 39f 30f
4:04 3ft 4s 25 31 mph 1011.1mb 39f 31f
3:04 2.5ft 4s 22 27 mph 1011.1mb 39f 31f
2:04 3ft 4s 25 29 mph 1010.8mb 40f 32f
1:04 2.5ft 4s 22 31 mph 1012.2mb 39f 32f
12:04 2.5ft 3s 20 25 mph 1013.2mb 40f 33f
11:04 2ft 3s 18 20 mph 1014.8mb 40f 33f
10:04 2ft 3s 18 20 mph - 40f 33f
9:04  -   -  22 27 mph 1015.1mb 40f 33f
8:04 2ft 3s 18 22 mph 1017.5mb 40f 33f
7:04  -   -  18 22 mph 1017.2mb 40f 34f
6:04  -   -  16 18 mph 1017.2mb 40f 35f
5:04 4ft 11s 18 20 mph 1017.1mb 40f 36f
4:04 3ft 8s 18 22 mph 1017.2mb 40f 40f
3:04 3ft 8s 11 13 mph 1017mb 40f 40f
2:04 3ft 11s 11 13 mph 1017.6mb 40f 41f
1:04 3ft 8s 9 11 mph 1016.9mb 40f 41f
12:04 2.5ft 8s 11
mph
1016.3mb 40f 41f
jeu. 02/04 11:04 3.5ft 8s 9 11 mph 1016.4mb 40f 42f
10:04 2.5ft 8s 9
mph
1016.7mb 40f 42f
9:04 3.5ft 8s 7 9 mph 1017.2mb 40f 42f
8:04 3.5ft 8s 9 11 mph 1016mb 40f 43f
7:04 3.5ft 8s 11 13 mph 1015.4mb 40f 44f
6:04 3ft 8s 4 7 mph 1014.9mb 40f 43f
4:04 3.5ft 8s 4
mph
1013.1mb 40f 42f
3:04 3.5ft 8s 4
mph
1012mb 40f 44f
2:04 3.5ft 8s 2 4 mph 1011.4mb 40f 45f
1:04 4.5ft 8s 4
mph
1011mb 40f 43f
12:04 4.5ft 8s 4 7 mph 1010.7mb 40f 44f
11:04 4.5ft 8s 7 9 mph 1011.3mb 40f 45f
10:04 4.5ft 8s 7 9 mph 1011.2mb 40f 45f
9:04 4.5ft 8s 7 9 mph 1010.2mb 40f 44f
8:04 4.5ft 11s 9 11 mph 1009.9mb 40f 44f
7:04 4.5ft 8s 11 16 mph 1009.5mb 40f 45f
6:04 5ft 8s 13 16 mph 1009.3mb 40f 45f
5:04 4.5ft 8s 11
mph
1009.3mb 40f 44f
4:04 5ft 8s 16 18 mph 1008.5mb 40f 44f
3:04 6ft 8s 13 16 mph 1009.6mb 40f 44f
2:04  -   -  13 16 mph 1009.7mb 40f 45f
1:04 9.5ft 11s 20 22 mph 1009.9mb 40f 47f
12:04 8ft 11s 18 27 mph 1008.9mb 40f 48f
mer. 02/03 11:04 7.5ft 11s 11 13 mph 1009.6mb 40f 46f
10:04 8.5ft 11s 22 31 mph 1009.8mb 40f 50f
9:04 10ft 8s 22 27 mph 1010.5mb 40f 48f
8:04 10.5ft 8s 27 34 mph 1010.6mb 40f 48f
7:04 10ft 8s 31 40 mph 1010.8mb 40f 47f
6:04 8ft 8s 31 38 mph 1012.6mb 40f 44f
5:04 7.5ft 8s 27 31 mph 1015.1mb 40f 43f
4:04 7ft 8s 27 31 mph 1016.2mb 39f 42f
3:04 7ft 6s 22 31 mph 1017.8mb 39f 41f
2:04 6.5ft 6s 25 29 mph 1019.3mb 39f 40f
1:04 6ft 6s 25 29 mph 1021.2mb 39f 40f
12:04 6ft 6s 25 31 mph 1022.6mb 39f 40f
11:04 6ft 5s 25 29 mph 1025mb 39f 41f
10:04 4.5ft 5s 22 27 mph 1026.3mb 39f 41f
9:04 3.5ft 5s 22 29 mph 1026.4mb 39f 40f
8:04 2.5ft 4s 22 27 mph 1026.7mb 39f 40f
7:04 2ft 4s 20 25 mph 1028mb 40f 38f
6:04 2ft 8s 9 16 mph 1029.2mb 39f 35f
5:04 1.3ft 4s 11 16 mph 1029.4mb 39f 33f
4:04 2ft 8s 13 16 mph 1029.6mb 39f 33f
3:04 1.3ft 8s 13 18 mph 1029.8mb 39f 33f
2:04 1.3ft 8s 11 16 mph 1029.4mb 39f 33f
1:04 1.3ft 8s 11 13 mph 1029.6mb - 33f